Decoded Metar for KFDW (FAIRFIELD COUNTY AIRPORT in SC, USA) (IATA:N/A) | Meteo·Mobile Aviation Weather
aviador You're here:

KFDW Decoded Metar

FAIRFIELD COUNTY AIRPORT in SC, USA
Report Time2019-07-16 10:35:00
UTC Time2019-07-16 10:40:08
Flight Rules vfr VFR
WindCalm
Visibility9999 m
Phenomena:N/A
Clouds:N/A
CeilingNone
Temp21°C (ISA +7)
Dew Point21°C (100% RH)
QNH1020 hPa
Density Alt1,506 ft
Elevation577 ft
Report Wrong Elevation
Raw Report
KFDW 161035Z AUTO 00000KT 7SM CLR 21/21 A3012 RMK AO1=

Extra information for KFDW:More info

Metar Taf Metar & Taf Last 4 Metars F.Rules Stats Wind Profile Meteogram Temp Stats Airport Information Weather charts Add Link Nearby VenuesMetar ALERT Operation Metar Decoded Social comments

AIRNAV info for KFDW